Time;durP1;ratioP1;P1;durP2;ratioP2;P2;SDS_P1;SDS_P2;PMS_P1;PMS_P2;Temp;Humidity;BMP_temperature;BMP_pressure;BME280_temperature;BME280_humidity;BME280_pressure;Samples;Min_cycle;Max_cycle;Signal;HPM_P1;HPM_P2
2022/08/13 00:01:05;;;;;;;4.45;1.98;;;;;;;23.02;41.95;99913.34;5073922;28;20048;-64
2022/08/13 00:03:52;;;;;;;5.30;2.05;;;;;;;23.03;41.97;99916.88;5058705;28;20074;-64
2022/08/13 00:09:23;;;;;;;1.83;1.58;;;;;;;23.04;42.04;99914.16;5073615;28;20055;-64
2022/08/13 00:15:33;;;;;;;6.28;1.98;;;;;;;23.05;42.31;99915.00;5073944;28;20048;-63
2022/08/13 00:18:23;;;;;;;3.05;1.92;;;;;;;23.04;42.38;99914.16;5073358;28;20094;-63
2022/08/13 00:21:09;;;;;;;5.68;2.03;;;;;;;23.04;42.26;99913.31;5073842;28;20071;-63
2022/08/13 00:23:58;;;;;;;4.40;1.58;;;;;;;23.03;42.53;99917.72;5058359;28;20055;-64
2022/08/13 00:26:45;;;;;;;2.45;1.65;;;;;;;23.04;42.24;99922.09;5073492;28;20090;-64
2022/08/13 00:29:32;;;;;;;2.92;2.13;;;;;;;23.01;42.45;99918.72;5073803;28;20189;-64
2022/08/13 00:32:21;;;;;;;5.40;1.92;;;;;;;23.02;42.49;99920.44;5058975;28;20055;-63
2022/08/13 00:35:07;;;;;;;5.10;2.15;;;;;;;23.02;42.15;99920.44;5038009;28;20359;-64
2022/08/13 00:37:55;;;;;;;;;;;;;;;22.98;42.07;99908.25;5053836;28;20534;-63
2022/08/13 00:40:54;;;;;;;2.33;1.80;;;;;;;22.96;42.37;99903.88;5038599;28;20005;-64
2022/08/13 00:43:40;;;;;;;3.97;1.98;;;;;;;22.95;42.77;99911.88;5053281;28;20056;-63
2022/08/13 00:46:30;;;;;;;3.97;1.83;;;;;;;22.95;42.93;99911.88;5053313;28;20128;-62
2022/08/13 00:49:16;;;;;;;2.92;1.95;;;;;;;22.94;42.85;99903.06;5053585;28;20106;-65
2022/08/13 00:52:10;;;;;;;3.60;1.58;;;;;;;22.94;43.03;99911.00;5038380;28;20047;-63
2022/08/13 00:54:59;;;;;;;4.47;1.80;;;;;;;22.94;42.87;99908.38;5053507;28;20051;-63
2022/08/13 00:57:49;;;;;;;7.25;1.60;;;;;;;22.92;43.02;99907.56;5052907;28;20048;-63
2022/08/13 01:00:36;;;;;;;4.00;1.65;;;;;;;22.92;43.21;99914.63;5053136;28;20416;-63
2022/08/13 01:03:28;;;;;;;2.45;1.60;;;;;;;22.92;43.24;99914.63;5037717;28;20056;-63
2022/08/13 01:06:15;;;;;;;2.13;1.50;;;;;;;22.92;43.17;99912.00;5038235;28;20052;-63
2022/08/13 01:08:59;;;;;;;2.50;1.90;;;;;;;22.92;43.21;99912.00;5037965;28;20133;-63
2022/08/13 01:11:49;;;;;;;3.58;1.52;;;;;;;22.91;43.45;99913.75;5038022;28;20572;-63
2022/08/13 01:14:37;;;;;;;3.78;2.00;;;;;;;22.91;43.17;99908.47;5053028;28;20107;-63
2022/08/13 01:17:23;;;;;;;2.33;1.70;;;;;;;22.90;43.31;99909.38;5038352;28;20465;-63
2022/08/13 01:20:18;;;;;;;2.60;1.83;;;;;;;22.90;43.10;99914.66;5038172;28;20052;-63
2022/08/13 01:23:11;;;;;;;5.20;1.50;;;;;;;22.90;42.89;99911.19;5038018;28;20114;-63
2022/08/13 01:26:01;;;;;;;2.08;1.65;;;;;;;22.90;42.95;99908.53;5053247;28;20435;-63
2022/08/13 01:28:52;;;;;;;2.38;1.80;;;;;;;22.90;42.92;99911.19;5053156;28;20052;-63
2022/08/13 01:31:39;;;;;;;3.10;2.10;;;;;;;22.90;43.08;99912.03;5038128;28;20051;-63
2022/08/13 01:34:25;;;;;;;3.38;1.80;;;;;;;22.89;42.87;99912.94;5052831;28;20052;-63
2022/08/13 01:37:13;;;;;;;2.03;1.55;;;;;;;22.89;42.99;99912.94;5055867;28;20052;-63
2022/08/13 01:40:04;;;;;;;1.95;1.60;;;;;;;22.88;42.99;99911.25;5056463;28;20052;-63
2022/08/13 01:42:48;;;;;;;2.35;1.60;;;;;;;22.89;42.87;99915.59;5041764;28;20099;-62
2022/08/13 01:45:40;;;;;;;2.97;1.75;;;;;;;22.88;42.90;99915.66;5056048;28;20076;-63
2022/08/13 01:51:40;;;;;;;4.57;1.65;;;;;;;22.85;42.82;99906.06;5056521;28;20111;-64
2022/08/13 01:54:30;;;;;;;1.67;1.17;;;;;;;22.85;42.96;99910.47;5041219;28;20056;-64
2022/08/13 01:57:20;;;;;;;2.60;1.70;;;;;;;22.84;42.83;99903.47;5041366;28;20064;-65
2022/08/13 02:00:13;;;;;;;5.70;1.48;;;;;;;22.83;42.97;99902.63;5056472;28;20087;-65
2022/08/13 02:03:04;;;;;;;3.17;1.65;;;;;;;22.83;43.06;99909.66;5056038;28;20503;-64
2022/08/13 02:05:56;;;;;;;3.35;1.80;;;;;;;22.84;43.30;99908.75;5041199;28;20043;-64
2022/08/13 02:08:43;;;;;;;2.63;1.75;;;;;;;22.81;43.40;99907.94;5041237;28;20087;-64
2022/08/13 02:11:34;;;;;;;1.85;1.42;;;;;;;22.80;43.45;99906.25;5040752;28;20557;-64
2022/08/13 02:14:21;;;;;;;2.47;1.70;;;;;;;22.79;43.70;99901.00;5055880;28;20048;-64
2022/08/13 02:17:24;;;;;;;3.38;1.75;;;;;;;22.76;43.76;99904.63;5040822;28;20520;-64
2022/08/13 02:20:17;;;;;;;1.90;1.60;;;;;;;22.73;43.68;99907.38;5056024;28;20118;-64
2022/08/13 02:23:04;;;;;;;3.05;1.45;;;;;;;22.72;43.89;99904.81;5041408;28;20535;-64
2022/08/13 02:25:50;;;;;;;2.25;1.60;;;;;;;22.72;43.81;99908.28;5055960;28;20464;-63
2022/08/13 02:28:39;;;;;;;2.33;1.70;;;;;;;22.72;43.88;99910.09;5055993;28;20095;-63
2022/08/13 02:31:26;;;;;;;2.47;1.58;;;;;;;22.73;43.75;99903.91;5055463;28;20119;-63
2022/08/13 02:34:12;;;;;;;2.22;1.50;;;;;;;22.71;43.68;99917.13;5040523;28;20408;-63
2022/08/13 02:36:59;;;;;;;1.90;1.70;;;;;;;22.72;43.84;99910.94;5055748;28;20626;-63
2022/08/13 02:39:47;;;;;;;3.63;1.63;;;;;;;22.71;43.87;99919.78;5055229;28;20094;-63
2022/08/13 02:42:37;;;;;;;3.97;1.30;;;;;;;22.70;43.70;99918.06;5055559;28;20404;-63
2022/08/13 02:45:23;;;;;;;1.80;1.48;;;;;;;22.70;43.89;99917.22;5041046;28;20103;-63
2022/08/13 02:48:13;;;;;;;3.30;1.80;;;;;;;22.70;43.90;99923.34;5040460;28;20047;-63
2022/08/13 02:50:59;;;;;;;4.00;1.67;;;;;;;22.69;44.08;99926.88;5039561;28;20055;-63
2022/08/13 02:53:49;;;;;;;2.17;1.60;;;;;;;22.69;43.89;99924.25;5055244;28;20090;-63
2022/08/13 02:56:36;;;;;;;2.05;1.67;;;;;;;22.67;43.96;99923.44;5039856;28;20067;-63
2022/08/13 02:59:20;;;;;;;3.55;2.38;;;;;;;22.64;44.06;99923.56;5055364;28;20076;-63
2022/08/13 03:02:06;;;;;;;2.80;1.45;;;;;;;22.63;44.05;99917.41;5055034;28;20064;-63
2022/08/13 03:04:55;;;;;;;3.35;1.30;;;;;;;22.61;44.10;99918.41;5040140;28;20048;-63
2022/08/13 03:07:44;;;;;;;2.17;1.42;;;;;;;22.58;44.04;99919.34;5039827;28;20518;-63
2022/08/13 03:10:32;;;;;;;2.55;1.75;;;;;;;22.58;43.89;99913.22;5054791;28;20405;-63
2022/08/13 03:13:26;;;;;;;2.28;1.65;;;;;;;22.55;44.17;99922.13;5054334;28;20519;-64
2022/08/13 03:16:15;;;;;;;2.22;1.60;;;;;;;22.55;44.28;99918.59;5039954;28;20174;-64
2022/08/13 03:19:00;;;;;;;4.15;1.77;;;;;;;22.56;44.22;99912.41;5039970;28;20135;-64
2022/08/13 03:21:49;;;;;;;5.22;1.73;;;;;;;22.56;44.12;99912.41;5054271;28;20158;-63
2022/08/13 03:24:36;;;;;;;1.60;1.40;;;;;;;22.56;44.21;99915.94;5054621;28;20106;-63
2022/08/13 03:27:27;;;;;;;3.22;1.90;;;;;;;22.58;44.07;99926.44;5039712;28;20080;-63
2022/08/13 03:30:14;;;;;;;5.43;1.83;;;;;;;22.58;44.14;99918.50;5039296;28;20079;-63
2022/08/13 03:33:13;;;;;;;2.00;1.30;;;;;;;22.58;44.09;99918.50;5039510;28;20408;-63
2022/08/13 03:35:58;;;;;;;5.75;1.55;;;;;;;22.57;44.11;99922.06;5039257;28;20090;-63
2022/08/13 03:38:46;;;;;;;2.38;1.70;;;;;;;22.58;44.09;99929.06;5054412;28;20131;-63
2022/08/13 03:41:33;;;;;;;1.80;1.33;;;;;;;22.58;44.14;99916.72;5053581;28;20051;-63
2022/08/13 03:44:22;;;;;;;2.13;1.40;;;;;;;22.60;44.06;99924.59;5054151;28;20052;-63
2022/08/13 03:47:08;;;;;;;1.80;1.40;;;;;;;22.59;43.98;99925.50;5039469;28;20128;-63
2022/08/13 03:49:58;;;;;;;2.00;1.48;;;;;;;22.59;43.96;99926.34;5054320;28;20056;-63
2022/08/13 03:52:42;;;;;;;5.80;1.80;;;;;;;22.60;44.22;99927.25;5039149;28;20412;-63
2022/08/13 03:55:30;;;;;;;1.63;1.40;;;;;;;22.59;44.25;99929.00;5054284;28;20470;-64
2022/08/13 03:58:17;;;;;;;2.38;1.73;;;;;;;22.59;44.09;99934.28;5052846;28;20102;-64
2022/08/13 04:01:07;;;;;;;2.88;1.60;;;;;;;22.59;43.95;99933.44;5053186;28;20413;-64
2022/08/13 04:03:54;;;;;;;2.20;1.77;;;;;;;22.57;43.84;99936.13;5038848;28;20119;-64
2022/08/13 04:06:41;;;;;;;1.85;1.50;;;;;;;22.57;43.86;99929.97;5038972;28;20114;-64
2022/08/13 04:09:27;;;;;;;2.00;1.70;;;;;;;22.56;43.83;99933.53;5054020;28;20082;-64
2022/08/13 04:12:12;;;;;;;1.80;1.48;;;;;;;22.54;43.81;99928.31;5053837;28;20420;-63
2022/08/13 04:14:59;;;;;;;2.22;1.58;;;;;;;22.51;43.86;99931.91;5053879;28;20094;-63
2022/08/13 04:17:48;;;;;;;3.97;1.60;;;;;;;22.51;43.85;99929.28;5053894;28;20055;-62
2022/08/13 04:20:34;;;;;;;2.38;1.88;;;;;;;22.49;43.62;99931.13;5053946;28;20143;-63
2022/08/13 04:23:21;;;;;;;4.55;1.70;;;;;;;22.48;43.83;99926.75;5053558;28;20052;-63
2022/08/13 04:26:08;;;;;;;1.75;1.50;;;;;;;22.48;43.56;99933.81;5053823;28;20099;-63
2022/08/13 04:28:54;;;;;;;1.73;1.38;;;;;;;22.45;43.21;99926.00;5053128;28;20091;-64
2022/08/13 04:31:45;;;;;;;2.95;1.48;;;;;;;22.46;43.64;99940.91;5038859;28;20170;-64
2022/08/13 04:34:34;;;;;;;5.55;1.73;;;;;;;22.46;43.42;99930.34;5052159;28;20067;-64
2022/08/13 04:37:22;;;;;;;2.70;1.88;;;;;;;22.45;43.76;99937.44;5038858;28;20110;-63
2022/08/13 04:40:07;;;;;;;2.53;1.70;;;;;;;22.45;43.67;99940.06;5038641;28;20546;-63
2022/08/13 04:42:57;;;;;;;6.22;1.50;;;;;;;22.46;43.66;99939.16;5038516;28;20083;-64
2022/08/13 04:45:42;;;;;;;2.45;1.48;;;;;;;22.45;43.73;99932.16;5038563;28;20116;-64
2022/08/13 04:48:31;;;;;;;3.30;1.60;;;;;;;22.44;43.82;99933.06;5038395;28;20052;-64
2022/08/13 04:51:17;;;;;;;2.97;1.77;;;;;;;22.46;43.79;99935.63;5053545;28;20106;-65
2022/08/13 04:54:02;;;;;;;3.00;1.48;;;;;;;22.45;43.74;99942.72;5052154;28;20048;-63
2022/08/13 04:56:46;;;;;;;2.00;1.55;;;;;;;22.45;43.64;99939.19;5053447;28;20107;-63
2022/08/13 04:59:38;;;;;;;1.73;1.58;;;;;;;22.44;43.71;99940.09;5053422;28;20048;-63
2022/08/13 05:02:25;;;;;;;7.75;1.70;;;;;;;22.43;43.47;99933.09;5032260;28;20048;-63
2022/08/13 05:05:15;;;;;;;2.53;1.42;;;;;;;22.41;43.43;99934.91;5033532;28;20064;-64
2022/08/13 05:08:07;;;;;;;2.00;1.67;;;;;;;22.40;43.36;99941.13;5032418;28;20507;-64
2022/08/13 05:10:53;;;;;;;2.38;1.60;;;;;;;22.39;43.09;99936.75;5035912;28;20100;-64
2022/08/13 05:13:39;;;;;;;2.40;1.45;;;;;;;22.38;43.21;99943.78;5037051;28;20052;-64
2022/08/13 05:16:31;;;;;;;4.18;1.60;;;;;;;22.36;42.88;99937.69;5036295;28;20045;-64
2022/08/13 05:19:18;;;;;;;2.35;1.40;;;;;;;22.35;43.06;99944.75;5036106;28;20072;-64
2022/08/13 05:22:06;;;;;;;2.92;1.77;;;;;;;22.35;43.12;99938.59;5036317;28;20190;-64
2022/08/13 05:24:56;;;;;;;4.13;1.33;;;;;;;22.36;42.99;99949.13;5036162;28;20060;-64
2022/08/13 05:27:44;;;;;;;5.70;1.45;;;;;;;22.36;42.94;99945.63;5037119;28;20053;-63
2022/08/13 05:30:37;;;;;;;2.08;1.30;;;;;;;22.38;43.43;99953.50;5035869;28;20615;-63
2022/08/13 05:33:28;;;;;;;5.15;1.80;;;;;;;22.38;43.11;99954.34;5035702;28;20048;-63
2022/08/13 05:36:15;;;;;;;1.90;1.48;;;;;;;22.39;43.11;99950.78;5036747;28;20452;-63
2022/08/13 05:38:58;;;;;;;2.95;1.20;;;;;;;22.40;43.37;99947.25;5036669;28;20048;-64
2022/08/13 05:41:47;;;;;;;2.50;1.60;;;;;;;22.41;43.23;99948.13;5036418;28;20140;-63
2022/08/13 05:44:37;;;;;;;2.97;1.80;;;;;;;22.40;43.15;99947.25;5035884;28;20466;-63
2022/08/13 05:47:24;;;;;;;3.75;1.40;;;;;;;22.40;43.55;99949.88;5035802;28;20519;-63
2022/08/13 05:50:13;;;;;;;3.35;1.58;;;;;;;22.40;43.46;99947.25;5036525;28;20512;-63
2022/08/13 05:53:10;;;;;;;4.53;1.73;;;;;;;22.40;43.23;99941.13;5035639;28;20084;-63
2022/08/13 05:55:59;;;;;;;3.00;1.35;;;;;;;22.40;43.15;99947.25;5036664;28;20052;-63
2022/08/13 05:58:50;;;;;;;3.33;1.55;;;;;;;22.40;43.42;99941.97;5035953;28;20048;-63
2022/08/13 06:04:44;;;;;;;3.65;1.70;;;;;;;22.40;43.37;99944.59;5056623;28;20127;-63
2022/08/13 06:07:35;;;;;;;2.75;1.60;;;;;;;22.40;43.22;99943.75;5055229;28;20132;-63
2022/08/13 06:10:27;;;;;;;3.30;1.50;;;;;;;22.39;43.22;99945.50;5056065;28;20051;-63
2022/08/13 06:13:16;;;;;;;1.67;1.20;;;;;;;22.39;43.38;99942.88;5055731;28;20510;-63
2022/08/13 06:16:04;;;;;;;2.25;1.50;;;;;;;22.40;43.16;99941.97;5055416;28;20146;-63
2022/08/13 06:18:49;;;;;;;2.40;1.90;;;;;;;22.38;43.07;99943.78;5040856;28;20040;-63
2022/08/13 06:21:39;;;;;;;3.15;1.73;;;;;;;22.37;43.04;99942.06;5040753;28;20103;-63
2022/08/13 06:24:35;;;;;;;1.70;1.40;;;;;;;22.37;43.00;99936.78;5040920;28;20060;-63
2022/08/13 06:27:21;;;;;;;5.53;1.52;;;;;;;22.38;43.22;99942.94;5055607;28;20051;-63
2022/08/13 06:30:18;;;;;;;6.45;2.03;;;;;;;22.39;43.29;99942.03;5040867;28;20048;-63
2022/08/13 06:33:03;;;;;;;1.67;1.27;;;;;;;22.38;43.29;99943.78;5040393;28;20114;-63
2022/08/13 06:35:58;;;;;;;4.57;1.60;;;;;;;22.39;43.00;99942.88;5055510;28;20071;-63
2022/08/13 06:38:51;;;;;;;2.38;1.83;;;;;;;22.40;43.27;99947.25;5055473;28;20455;-63
2022/08/13 06:41:39;;;;;;;3.58;1.75;;;;;;;22.41;43.50;99945.47;5040678;28;20103;-63
2022/08/13 06:44:23;;;;;;;2.08;1.58;;;;;;;22.40;43.42;99944.59;5055171;28;20052;-63
2022/08/13 06:47:07;;;;;;;4.28;1.50;;;;;;;22.41;43.43;99943.69;5055234;28;20131;-63
2022/08/13 06:49:53;;;;;;;3.72;1.55;;;;;;;22.43;43.60;99947.19;5040413;28;20047;-64
2022/08/13 06:52:42;;;;;;;3.58;1.70;;;;;;;22.44;43.50;99953.31;5040293;28;20106;-63
2022/08/13 06:55:29;;;;;;;3.65;1.70;;;;;;;22.44;43.60;99948.03;5040373;28;20087;-63
2022/08/13 06:58:17;;;;;;;3.45;1.60;;;;;;;22.45;43.66;99953.28;5040259;28;20087;-63
2022/08/13 07:01:07;;;;;;;2.15;1.52;;;;;;;22.46;43.84;99949.72;5055064;28;20472;-62
2022/08/13 07:03:55;;;;;;;3.22;1.85;;;;;;;22.47;43.62;99947.91;5054949;28;20087;-63
2022/08/13 07:06:44;;;;;;;2.15;1.42;;;;;;;22.49;43.48;99951.38;5040097;28;20051;-63
2022/08/13 07:09:33;;;;;;;2.85;1.73;;;;;;;22.49;43.80;99948.72;5055110;28;20048;-63
2022/08/13 07:12:20;;;;;;;2.45;1.88;;;;;;;22.48;43.93;99953.16;5055148;28;20076;-63
2022/08/13 07:15:13;;;;;;;5.95;2.25;;;;;;;22.48;43.82;99950.53;5039967;28;20502;-63
2022/08/13 07:18:00;;;;;;;2.20;1.50;;;;;;;22.51;44.24;99955.69;5039744;28;20052;-64
2022/08/13 07:20:50;;;;;;;2.22;1.65;;;;;;;22.51;44.20;99952.19;5040044;28;20086;-64
2022/08/13 07:23:42;;;;;;;2.00;1.45;;;;;;;22.52;43.85;99953.91;5039814;28;20091;-64
2022/08/13 07:26:36;;;;;;;1.50;1.40;;;;;;;22.50;44.11;99951.31;5039591;28;20052;-64
2022/08/13 07:29:26;;;;;;;2.80;1.67;;;;;;;22.50;44.03;99959.22;5054461;28;20051;-64
2022/08/13 07:32:15;;;;;;;2.45;1.58;;;;;;;22.51;44.14;99957.47;5039657;28;20102;-62
2022/08/13 07:35:01;;;;;;;6.47;1.42;;;;;;;22.51;44.26;99954.81;5039129;28;20124;-63
2022/08/13 07:37:52;;;;;;;2.10;1.55;;;;;;;22.51;44.02;99953.03;5054304;28;20047;-62
2022/08/13 07:40:43;;;;;;;3.40;1.45;;;;;;;22.54;44.07;99953.84;5039197;28;20090;-63
2022/08/13 07:43:41;;;;;;;3.58;1.50;;;;;;;22.54;44.18;99960.00;5039378;28;20115;-62
2022/08/13 07:46:25;;;;;;;3.22;1.83;;;;;;;22.54;44.16;99964.41;5054185;28;20404;-64
2022/08/13 07:49:14;;;;;;;4.47;1.73;;;;;;;22.53;44.08;99955.63;5054166;28;20044;-62
2022/08/13 07:52:05;;;;;;;2.53;1.40;;;;;;;22.54;43.96;99962.66;5054222;28;20044;-63
2022/08/13 07:54:50;;;;;;;1.98;1.55;;;;;;;22.55;44.30;99959.09;5038878;28;20110;-64
2022/08/13 07:57:47;;;;;;;3.28;1.50;;;;;;;22.55;44.03;99966.13;5054242;28;20068;-62
2022/08/13 08:00:37;;;;;;;2.70;1.40;;;;;;;22.55;44.03;99966.13;5053949;28;20055;-64
2022/08/13 08:03:21;;;;;;;2.47;1.60;;;;;;;22.55;44.23;99963.50;5053754;28;20056;-64
2022/08/13 08:06:09;;;;;;;2.75;1.50;;;;;;;22.55;43.73;99961.72;5053749;28;20510;-64
2022/08/13 08:08:57;;;;;;;5.18;1.50;;;;;;;22.56;43.93;99962.59;5039235;28;20531;-64
2022/08/13 08:14:50;;;;;;;2.13;1.40;;;;;;;22.58;44.14;99955.47;5053395;28;20079;-64
2022/08/13 08:17:40;;;;;;;2.15;1.33;;;;;;;22.60;44.20;99962.41;5053841;28;20538;-64
2022/08/13 08:20:30;;;;;;;1.58;1.45;;;;;;;22.60;44.15;99967.69;5038849;28;20494;-64
2022/08/13 08:23:19;;;;;;;4.75;1.48;;;;;;;22.62;44.13;99962.38;5038841;28;20102;-63
2022/08/13 08:26:07;;;;;;;3.92;1.67;;;;;;;22.63;44.01;99961.47;5053571;28;20063;-64
2022/08/13 08:28:55;;;;;;;2.45;1.45;;;;;;;22.62;44.18;99963.22;5038703;28;20043;-64
2022/08/13 08:31:49;;;;;;;1.23;1.13;;;;;;;22.63;43.99;99969.38;5038556;28;20079;-64
2022/08/13 08:34:40;;;;;;;2.20;1.50;;;;;;;22.63;44.20;99964.09;5053474;28;20043;-63
2022/08/13 08:43:38;;;;;;;2.92;1.73;;;;;;;22.65;44.08;99967.56;5053485;28;20044;-63
2022/08/13 08:46:34;;;;;;;1.77;1.60;;;;;;;22.67;44.24;99963.06;5038310;28;20091;-63
2022/08/13 08:49:24;;;;;;;2.22;1.60;;;;;;;22.67;44.30;99965.69;5038674;28;20502;-63
2022/08/13 08:52:14;;;;;;;3.88;1.20;;;;;;;22.68;44.16;99963.94;5038224;28;20191;-63
2022/08/13 08:55:02;;;;;;;2.28;1.38;;;;;;;22.69;44.24;99963.03;5052993;28;20094;-63
2022/08/13 08:57:50;;;;;;;2.17;1.52;;;;;;;22.71;44.24;99971.75;5053307;28;20558;-62
2022/08/13 09:00:41;;;;;;;1.90;1.20;;;;;;;22.71;44.07;99955.91;5053521;28;20511;-63
2022/08/13 09:03:28;;;;;;;5.60;1.42;;;;;;;22.72;44.33;99965.56;5038058;28;20060;-63
2022/08/13 09:06:17;;;;;;;2.60;1.83;;;;;;;22.74;44.31;99953.13;5038291;28;20404;-63
2022/08/13 09:09:06;;;;;;;2.85;1.38;;;;;;;22.75;44.39;99957.50;5038593;28;20566;-63
2022/08/13 09:11:55;;;;;;;3.17;1.27;;;;;;;22.76;44.25;99948.66;5053136;28;20399;-63
2022/08/13 09:14:42;;;;;;;2.20;1.40;;;;;;;22.77;44.17;99950.38;5053307;28;20606;-63
2022/08/13 09:17:33;;;;;;;1.73;1.33;;;;;;;22.78;44.21;99945.06;5038333;28;20110;-62
2022/08/13 09:20:20;;;;;;;3.35;1.45;;;;;;;22.80;44.28;99937.94;5038031;28;20059;-64
2022/08/13 09:23:12;;;;;;;2.72;1.20;;;;;;;22.84;44.22;99935.16;5053200;28;20094;-64
2022/08/13 09:25:56;;;;;;;1.75;1.45;;;;;;;22.86;44.00;99935.97;5038017;28;20099;-63
2022/08/13 09:28:45;;;;;;;3.35;1.20;;;;;;;22.88;44.26;99936.78;5037733;28;20048;-63
2022/08/13 09:31:34;;;;;;;3.95;1.55;;;;;;;22.90;43.96;99933.16;5053124;28;20142;-63
2022/08/13 09:34:21;;;;;;;3.00;1.35;;;;;;;22.93;44.05;99935.69;5052631;28;20463;-63
2022/08/13 09:37:08;;;;;;;6.00;1.30;;;;;;;22.94;43.88;99932.13;5052915;28;20098;-64
2022/08/13 09:40:00;;;;;;;6.53;1.75;;;;;;;22.96;43.91;99930.31;5038037;28;20048;-63
2022/08/13 09:42:57;;;;;;;2.50;1.30;;;;;;;23.00;43.33;99927.56;5038033;28;20503;-63
2022/08/13 09:45:41;;;;;;;1.63;1.20;;;;;;;23.04;43.40;99931.81;5053051;28;20051;-64
2022/08/13 09:48:28;;;;;;;4.65;1.45;;;;;;;23.06;43.33;99929.94;5052594;28;20056;-63
2022/08/13 09:51:15;;;;;;;2.47;1.55;;;;;;;23.06;43.22;99930.81;5051738;28;20059;-64
2022/08/13 09:54:02;;;;;;;2.78;1.40;;;;;;;23.08;42.95;99928.13;5037698;28;20075;-63
2022/08/13 09:56:52;;;;;;;3.03;1.30;;;;;;;23.11;42.70;99914.78;5038535;28;20083;-63
2022/08/13 09:59:39;;;;;;;1.85;1.45;;;;;;;23.12;42.49;99911.22;5041306;28;20044;-63
2022/08/13 10:02:31;;;;;;;3.15;1.50;;;;;;;23.15;42.59;99912.88;5040984;28;20527;-63
2022/08/13 10:05:21;;;;;;;3.40;1.35;;;;;;;23.17;42.52;99916.34;5056192;28;20110;-63
2022/08/13 10:08:12;;;;;;;2.80;1.48;;;;;;;23.16;42.51;99911.97;5041203;28;20131;-63
2022/08/13 10:10:57;;;;;;;3.35;1.73;;;;;;;23.17;42.44;99911.94;5041276;28;20146;-63
2022/08/13 10:13:45;;;;;;;3.88;1.40;;;;;;;23.21;42.58;99907.41;5055993;28;20051;-63
2022/08/13 10:16:29;;;;;;;2.47;1.50;;;;;;;23.24;42.42;99902.84;5055814;28;20056;-63
2022/08/13 10:19:15;;;;;;;4.18;1.23;;;;;;;23.27;42.34;99893.97;5055962;28;20098;-63
2022/08/13 10:22:02;;;;;;;3.90;1.23;;;;;;;23.26;42.38;99895.72;5056094;28;20048;-63
2022/08/13 10:24:47;;;;;;;6.97;1.92;;;;;;;23.29;42.65;99896.53;5055779;28;20408;-63
2022/08/13 10:27:35;;;;;;;3.17;1.20;;;;;;;23.30;42.29;99898.25;5041017;28;20052;-62
2022/08/13 10:30:24;;;;;;;3.35;1.27;;;;;;;23.29;42.29;99900.03;5040706;28;20047;-66
2022/08/13 10:33:12;;;;;;;3.38;1.10;;;;;;;23.30;42.15;99891.16;5055665;28;20048;-65
2022/08/13 10:35:58;;;;;;;2.95;1.65;;;;;;;23.33;41.60;99892.84;5055779;28;20079;-64
2022/08/13 10:38:44;;;;;;;6.18;1.30;;;;;;;23.33;41.39;99896.34;5055565;28;20083;-63
2022/08/13 10:41:28;;;;;;;1.88;1.08;;;;;;;23.34;41.10;99892.78;5040152;28;20055;-63
2022/08/13 10:44:13;;;;;;;3.90;1.83;;;;;;;23.33;41.33;99891.06;5055664;28;20091;-62
2022/08/13 10:46:59;;;;;;;3.58;1.02;;;;;;;23.31;41.37;99892.06;5055441;28;20055;-65
2022/08/13 10:49:42;;;;;;;2.33;1.05;;;;;;;23.33;40.87;99891.06;5055447;28;20067;-64
2022/08/13 10:52:26;;;;;;;4.32;1.52;;;;;;;23.33;41.12;99885.78;5055614;28;20059;-64
2022/08/13 10:55:12;;;;;;;5.70;1.05;;;;;;;23.32;41.08;99877.91;5055188;28;20056;-66
2022/08/13 10:57:59;;;;;;;2.25;1.38;;;;;;;23.32;41.10;99875.28;5040513;28;20123;-65
2022/08/13 11:00:43;;;;;;;1.40;0.90;;;;;;;23.33;40.82;99877.84;5054433;28;20099;-66
2022/08/13 11:03:27;;;;;;;1.38;1.27;;;;;;;23.35;40.96;99869.88;5055122;28;20142;-64
2022/08/13 11:06:12;;;;;;;3.97;1.30;;;;;;;23.35;40.79;99873.34;5055307;28;20056;-64
2022/08/13 11:09:00;;;;;;;1.48;1.10;;;;;;;23.36;40.96;99869.78;5039836;28;20060;-64
2022/08/13 11:11:44;;;;;;;1.42;1.00;;;;;;;23.35;40.68;99862.78;5040053;28;20055;-64
2022/08/13 11:14:29;;;;;;;1.20;1.08;;;;;;;23.37;40.57;99868.88;5053439;28;20048;-65
2022/08/13 11:17:19;;;;;;;1.08;0.95;;;;;;;23.38;40.63;99867.94;5040070;28;20059;-64
2022/08/13 11:20:13;;;;;;;2.20;1.60;;;;;;;23.39;40.66;99859.09;5039458;28;20044;-64
2022/08/13 11:22:57;;;;;;;1.35;1.17;;;;;;;23.39;40.48;99850.28;5039698;28;20056;-64
2022/08/13 11:25:49;;;;;;;4.38;1.30;;;;;;;23.41;40.39;99856.38;5054935;28;20447;-63
2022/08/13 11:28:33;;;;;;;4.32;1.38;;;;;;;23.40;40.35;99852.88;5054736;28;20102;-63
2022/08/13 11:31:17;;;;;;;3.25;1.20;;;;;;;23.43;40.19;99849.25;5054425;28;20056;-63
2022/08/13 11:34:04;;;;;;;3.90;1.30;;;;;;;23.45;40.11;99852.69;5054368;28;20048;-64
2022/08/13 11:36:48;;;;;;;1.65;1.20;;;;;;;23.45;40.00;99849.19;5039523;28;20148;-65
2022/08/13 11:39:35;;;;;;;3.92;1.10;;;;;;;23.46;40.11;99851.78;5054431;28;20564;-63
2022/08/13 11:42:19;;;;;;;1.35;1.13;;;;;;;23.47;40.19;99849.97;5054237;28;20102;-64
2022/08/13 11:45:07;;;;;;;1.52;1.40;;;;;;;23.47;40.07;99842.03;5054303;28;20056;-63
2022/08/13 11:47:53;;;;;;;3.20;1.10;;;;;;;23.46;40.09;99838.56;5039062;28;20052;-65
2022/08/13 11:50:37;;;;;;;1.40;1.23;;;;;;;23.47;40.00;99844.69;5039581;28;20052;-66
2022/08/13 11:53:24;;;;;;;2.90;1.10;;;;;;;23.48;40.05;99838.47;5053143;28;20107;-65
2022/08/13 11:56:11;;;;;;;4.32;1.75;;;;;;;23.50;39.85;99834.00;5039103;28;20047;-64
2022/08/13 11:58:55;;;;;;;1.70;1.17;;;;;;;23.49;39.86;99824.34;5054177;28;20122;-65
2022/08/13 12:01:42;;;;;;;2.67;1.42;;;;;;;23.50;40.01;99824.28;5039035;28;20047;-64
2022/08/13 12:04:27;;;;;;;2.58;1.10;;;;;;;23.51;40.15;99822.50;5038985;28;20071;-64
2022/08/13 12:07:10;;;;;;;1.55;1.27;;;;;;;23.53;39.85;99818.00;5054170;28;20110;-63
2022/08/13 12:09:58;;;;;;;1.13;1.02;;;;;;;23.57;39.66;99815.16;5054108;28;20051;-64
2022/08/13 12:12:45;;;;;;;2.10;1.15;;;;;;;23.62;39.39;99817.59;5039246;28;20047;-63
2022/08/13 12:15:29;;;;;;;3.33;1.38;;;;;;;23.62;39.42;99811.47;5038846;28;20052;-63
2022/08/13 12:18:15;;;;;;;2.75;1.30;;;;;;;23.62;39.64;99814.97;5038925;28;20107;-63
2022/08/13 12:21:02;;;;;;;2.63;1.23;;;;;;;23.65;39.42;99821.94;5038588;28;20523;-63
2022/08/13 12:23:46;;;;;;;1.65;1.10;;;;;;;23.63;39.54;99811.41;5053955;28;20122;-63
2022/08/13 12:26:30;;;;;;;3.53;1.40;;;;;;;23.65;39.52;99806.91;5038811;28;20191;-63
2022/08/13 12:29:17;;;;;;;;;;;;;;;23.65;39.97;99808.72;5054191;28;20052;-64
2022/08/13 12:32:04;;;;;;;1.25;1.15;;;;;;;23.64;39.66;99799.91;5038326;28;19920;-65
2022/08/13 12:34:48;;;;;;;2.42;1.10;;;;;;;23.64;39.69;99789.31;5038542;28;20040;-65
2022/08/13 12:37:32;;;;;;;1.35;1.20;;;;;;;23.68;39.65;99800.63;5053690;28;20091;-64
2022/08/13 12:40:16;;;;;;;1.70;1.60;;;;;;;23.71;39.42;99798.72;5053749;28;20083;-63
2022/08/13 12:43:04;;;;;;;0.90;0.90;;;;;;;23.72;39.44;99792.50;5052625;28;20149;-64
2022/08/13 12:45:48;;;;;;;4.10;1.50;;;;;;;23.77;39.33;99800.25;5038590;28;20079;-63
2022/08/13 12:48:32;;;;;;;1.90;1.23;;;;;;;23.77;39.27;99796.72;5038763;28;20064;-65
2022/08/13 12:51:19;;;;;;;2.17;1.58;;;;;;;23.77;39.20;99791.44;5038447;28;20075;-64
2022/08/13 12:54:03;;;;;;;2.33;1.27;;;;;;;23.79;39.33;99794.88;5053406;28;20072;-64
2022/08/13 12:56:47;;;;;;;2.30;1.55;;;;;;;23.79;39.21;99792.22;5038306;28;20102;-64
2022/08/13 12:59:31;;;;;;;2.40;1.50;;;;;;;23.78;39.17;99785.22;5052589;28;20570;-64
2022/08/13 13:02:20;;;;;;;2.42;1.50;;;;;;;23.77;39.47;99781.72;5053372;28;20067;-64
2022/08/13 13:05:05;;;;;;;2.47;1.73;;;;;;;23.78;39.07;99790.50;5038226;28;20052;-64
2022/08/13 13:07:49;;;;;;;1.50;1.27;;;;;;;23.78;39.35;99788.75;5038226;28;20083;-63
2022/08/13 13:10:38;;;;;;;3.58;1.55;;;;;;;23.80;39.04;99783.38;5053130;28;20079;-63
2022/08/13 13:13:27;;;;;;;4.50;1.48;;;;;;;23.81;39.35;99763.91;5037818;28;20095;-63
2022/08/13 13:16:11;;;;;;;1.88;1.60;;;;;;;23.83;39.12;99756.78;5052879;28;20071;-64
2022/08/13 13:18:55;;;;;;;2.65;1.58;;;;;;;23.85;39.19;99763.72;5053246;28;20059;-63
2022/08/13 13:21:40;;;;;;;5.70;1.58;;;;;;;23.87;39.22;99766.31;5053335;28;20052;-63
2022/08/13 13:24:25;;;;;;;5.60;1.83;;;;;;;23.92;38.60;99759.00;5052750;28;20523;-63
2022/08/13 13:27:11;;;;;;;4.70;1.60;;;;;;;23.94;38.81;99757.16;5038160;28;20044;-62
2022/08/13 13:29:55;;;;;;;5.35;2.00;;;;;;;23.96;38.89;99763.28;5053442;28;20056;-63
2022/08/13 13:32:40;;;;;;;4.00;1.92;;;;;;;23.97;38.94;99751.78;5055031;28;20106;-62